Time;durP1;ratioP1;P1;durP2;ratioP2;P2;SDS_P1;SDS_P2;PMS_P1;PMS_P2;Temp;Humidity;BMP_temperature;BMP_pressure;BME280_temperature;BME280_humidity;BME280_pressure;Samples;Min_cycle;Max_cycle;Signal;HPM_P1;HPM_P2
2022/05/10 00:01:38;;;;;;;;;;;16.50;99.90;;;;;;5000985;28;21132;-81
2022/05/10 00:04:07;;;;;;;;;;;16.40;99.90;;;;;;5007719;28;19930;-81
2022/05/10 00:06:36;;;;;;;;;;;16.50;99.90;;;;;;5002717;28;20611;-82
2022/05/10 00:09:03;;;;;;;;;;;16.40;99.90;;;;;;4987314;28;19934;-81
2022/05/10 00:11:33;;;;;;;;;;;16.40;99.90;;;;;;4986080;28;19926;-82
2022/05/10 00:14:00;;;;;;;;;;;16.40;99.90;;;;;;4999211;28;20545;-81
2022/05/10 00:16:27;;;;;;;;;;;16.40;99.90;;;;;;4986352;28;19926;-81
2022/05/10 00:18:59;;;;;;;;;;;16.30;99.90;;;;;;4998547;28;19925;-82
2022/05/10 00:21:27;;;;;;;;;;;16.30;99.90;;;;;;5001514;28;19925;-81
2022/05/10 00:23:54;;;;;;;;;;;16.30;99.90;;;;;;4982537;28;19984;-83
2022/05/10 00:26:21;;;;;;;;;;;16.20;99.90;;;;;;4986686;28;20005;-81
2022/05/10 00:28:48;;;;;;;;;;;16.20;99.90;;;;;;4999953;28;19945;-81
2022/05/10 00:31:17;;;;;;;;;;;16.20;99.90;;;;;;4985627;28;19925;-81
2022/05/10 00:33:44;;;;;;;;;;;16.20;99.90;;;;;;4997192;28;19941;-81
2022/05/10 00:36:13;;;;;;;;;;;16.20;99.90;;;;;;4976133;23;20397;-83
2022/05/10 00:38:41;;;;;;;;;;;16.10;99.90;;;;;;4966107;28;19927;-83
2022/05/10 00:41:11;;;;;;;;;;;16.10;99.90;;;;;;4964341;28;19931;-83
2022/05/10 00:43:39;;;;;;;;;;;16.10;99.90;;;;;;4930298;29;19994;-83
2022/05/10 00:46:09;;;;;;;;;;;16.00;99.90;;;;;;4946795;28;20236;-83
2022/05/10 00:48:39;;;;;;;;;;;16.00;99.90;;;;;;4937380;28;19957;-83
2022/05/10 00:51:09;;;;;;;;;;;16.00;99.90;;;;;;4942894;28;19942;-82
2022/05/10 00:53:45;;;;;;;;;;;15.90;99.90;;;;;;4950949;28;20041;-83
2022/05/10 00:56:19;;;;;;;;;;;15.90;99.90;;;;;;4950050;28;19926;-83
2022/05/10 00:58:49;;;;;;;;;;;15.90;99.90;;;;;;4947929;28;19974;-84
2022/05/10 01:01:17;;;;;;;;;;;15.90;99.90;;;;;;4945566;28;20076;-83
2022/05/10 01:03:53;;;;;;;;;;;15.80;99.90;;;;;;4945406;28;19926;-84
2022/05/10 01:06:24;;;;;;;;;;;15.80;99.90;;;;;;4954639;28;20828;-83
2022/05/10 01:08:57;;;;;;;;;;;15.80;99.90;;;;;;4941260;28;19938;-83
2022/05/10 01:11:26;;;;;;;;;;;15.70;99.90;;;;;;4940175;28;19934;-83
2022/05/10 01:13:56;;;;;;;;;;;15.70;99.90;;;;;;4943677;28;19937;-83
2022/05/10 01:16:23;;;;;;;;;;;15.70;99.90;;;;;;4947807;28;19926;-83
2022/05/10 01:18:51;;;;;;;;;;;15.70;99.90;;;;;;4948158;28;19926;-83
2022/05/10 01:21:25;;;;;;;;;;;15.60;99.90;;;;;;4943759;28;19934;-83
2022/05/10 01:24:16;;;;;;;;;;;15.70;99.90;;;;;;4941911;28;19941;-83
2022/05/10 01:26:59;;;;;;;;;;;15.60;99.90;;;;;;4931648;28;19977;-84
2022/05/10 01:29:29;;;;;;;;;;;15.60;99.90;;;;;;4937847;28;19966;-82
2022/05/10 01:34:39;;;;;;;;;;;15.50;99.90;;;;;;4939495;28;19923;-83
2022/05/10 01:37:11;;;;;;;;;;;15.50;99.90;;;;;;4941289;28;19941;-85
2022/05/10 01:39:42;;;;;;;;;;;15.50;99.90;;;;;;4943336;28;19927;-85
2022/05/10 01:42:12;;;;;;;;;;;15.40;99.90;;;;;;4936363;28;19935;-85
2022/05/10 01:44:43;;;;;;;;;;;15.40;99.90;;;;;;4945551;28;20013;-85
2022/05/10 01:47:13;;;;;;;;;;;15.40;99.90;;;;;;4943755;28;19954;-85
2022/05/10 01:49:42;;;;;;;;;;;15.40;99.90;;;;;;4942616;28;19926;-85
2022/05/10 01:52:12;;;;;;;;;;;15.30;99.90;;;;;;4940889;28;19970;-85
2022/05/10 01:55:06;;;;;;;;;;;15.30;99.90;;;;;;4942473;28;20401;-85
2022/05/10 01:57:34;;;;;;;;;;;15.30;99.90;;;;;;4940725;28;19941;-84
2022/05/10 02:00:06;;;;;;;;;;;15.30;99.90;;;;;;4946041;28;19930;-85
2022/05/10 02:02:42;;;;;;;;;;;15.20;99.90;;;;;;4947776;28;19926;-84
2022/05/10 02:05:10;;;;;;;;;;;15.20;99.90;;;;;;4944826;28;19942;-84
2022/05/10 02:07:40;;;;;;;;;;;15.20;99.90;;;;;;4950463;28;19974;-84
2022/05/10 02:10:11;;;;;;;;;;;15.20;99.90;;;;;;4941563;28;19989;-84
2022/05/10 02:12:43;;;;;;;;;;;15.10;99.90;;;;;;4950161;28;19969;-84
2022/05/10 02:15:17;;;;;;;;;;;15.10;99.90;;;;;;4943603;28;19935;-84
2022/05/10 02:17:49;;;;;;;;;;;15.10;99.90;;;;;;4945024;28;19933;-84
2022/05/10 02:20:21;;;;;;;;;;;15.00;99.90;;;;;;4940121;28;19933;-84
2022/05/10 02:22:50;;;;;;;;;;;15.00;99.90;;;;;;4932227;28;19993;-84
2022/05/10 02:25:19;;;;;;;;;;;15.00;99.90;;;;;;4947118;28;19958;-83
2022/05/10 02:27:49;;;;;;;;;;;15.00;99.90;;;;;;4928460;28;20013;-84
2022/05/10 02:30:19;;;;;;;;;;;14.90;99.90;;;;;;4943947;28;22693;-83
2022/05/10 02:35:33;;;;;;;;;;;14.90;99.90;;;;;;4944464;28;19993;-84
2022/05/10 02:38:01;;;;;;;;;;;14.80;99.90;;;;;;4941869;28;19949;-84
2022/05/10 02:40:28;;;;;;;;;;;14.80;99.90;;;;;;4950720;28;20493;-83
2022/05/10 02:42:55;;;;;;;;;;;14.80;99.90;;;;;;4948349;28;19937;-83
2022/05/10 02:45:24;;;;;;;;;;;14.80;99.90;;;;;;4950642;28;19930;-84
2022/05/10 02:47:52;;;;;;;;;;;14.70;99.90;;;;;;4948265;28;19993;-84
2022/05/10 02:50:23;;;;;;;;;;;14.70;99.90;;;;;;4950268;28;19930;-82
2022/05/10 02:52:50;;;;;;;;;;;14.70;99.90;;;;;;4947153;28;19927;-84
2022/05/10 02:55:20;;;;;;;;;;;14.70;99.90;;;;;;4945829;28;19933;-83
2022/05/10 02:57:47;;;;;;;;;;;14.60;99.90;;;;;;4936919;28;19930;-84
2022/05/10 03:00:15;;;;;;;;;;;14.60;99.90;;;;;;4945148;28;19934;-84
2022/05/10 03:02:44;;;;;;;;;;;;;;;;;;4953177;28;19926;-84
2022/05/10 03:05:13;;;;;;;;;;;14.50;99.90;;;;;;4946081;28;19978;-83
2022/05/10 03:07:40;;;;;;;;;;;14.60;99.90;;;;;;4950723;28;20003;-84
2022/05/10 03:10:07;;;;;;;;;;;14.50;99.90;;;;;;4949585;28;20484;-82
2022/05/10 03:12:35;;;;;;;;;;;14.50;99.90;;;;;;4946564;28;19949;-84
2022/05/10 03:15:03;;;;;;;;;;;14.50;99.90;;;;;;4932518;28;20405;-83
2022/05/10 03:17:30;;;;;;;;;;;14.50;99.90;;;;;;4955200;28;19926;-83
2022/05/10 03:19:57;;;;;;;;;;;14.40;99.90;;;;;;4951645;28;19927;-82
2022/05/10 03:22:26;;;;;;;;;;;14.40;99.90;;;;;;4945788;28;19945;-83
2022/05/10 03:24:53;;;;;;;;;;;14.40;99.90;;;;;;4949520;28;20040;-83
2022/05/10 03:27:20;;;;;;;;;;;14.00;99.90;;;;;;4951621;28;19931;-83
2022/05/10 03:29:47;;;;;;;;;;;14.30;99.90;;;;;;4950366;28;20122;-83
2022/05/10 03:32:14;;;;;;;;;;;14.30;99.90;;;;;;4953585;28;20060;-83
2022/05/10 03:34:57;;;;;;;;;;;14.30;99.90;;;;;;4952906;28;19931;-83
2022/05/10 03:37:27;;;;;;;;;;;14.20;99.90;;;;;;4949227;28;19998;-84
2022/05/10 03:39:54;;;;;;;;;;;14.20;99.90;;;;;;4946878;28;19938;-84
2022/05/10 03:42:24;;;;;;;;;;;14.20;99.90;;;;;;4935095;28;19956;-84
2022/05/10 03:44:52;;;;;;;;;;;14.20;99.90;;;;;;4955806;28;19974;-84
2022/05/10 03:47:20;;;;;;;;;;;14.20;99.90;;;;;;4945229;28;19926;-84
2022/05/10 03:49:47;;;;;;;;;;;14.20;99.90;;;;;;4952381;28;19926;-84
2022/05/10 03:52:14;;;;;;;;;;;14.20;99.90;;;;;;4947745;28;19926;-84
2022/05/10 03:54:42;;;;;;;;;;;;;;;;;;4937141;28;19941;-84
2022/05/10 03:57:10;;;;;;;;;;;14.10;99.90;;;;;;4914485;28;20017;-82
2022/05/10 03:59:41;;;;;;;;;;;14.10;99.90;;;;;;4942382;28;20539;-81
2022/05/10 04:02:09;;;;;;;;;;;14.10;99.90;;;;;;4944413;28;19926;-81
2022/05/10 04:04:36;;;;;;;;;;;14.00;99.90;;;;;;4943604;28;20437;-81
2022/05/10 04:07:03;;;;;;;;;;;14.00;99.90;;;;;;4940940;28;19945;-82
2022/05/10 04:09:30;;;;;;;;;;;14.00;99.90;;;;;;4953401;28;19933;-82
2022/05/10 04:11:57;;;;;;;;;;;13.90;99.90;;;;;;4946969;28;19950;-81
2022/05/10 04:14:26;;;;;;;;;;;14.00;99.90;;;;;;4944384;28;19986;-83
2022/05/10 04:16:52;;;;;;;;;;;13.90;99.90;;;;;;4944592;28;20455;-81
2022/05/10 04:19:19;;;;;;;;;;;13.90;99.90;;;;;;4937515;28;19933;-83
2022/05/10 04:21:48;;;;;;;;;;;13.90;99.90;;;;;;4949449;28;19934;-82
2022/05/10 04:24:15;;;;;;;;;;;13.90;99.90;;;;;;4948369;28;19933;-81
2022/05/10 04:26:41;;;;;;;;;;;13.80;99.90;;;;;;4947806;28;19954;-81
2022/05/10 04:29:08;;;;;;;;;;;13.80;99.90;;;;;;4941330;28;19927;-82
2022/05/10 04:31:37;;;;;;;;;;;13.80;99.90;;;;;;4942505;28;19945;-84
2022/05/10 04:34:04;;;;;;;;;;;13.80;99.90;;;;;;4945258;28;19938;-82
2022/05/10 04:36:31;;;;;;;;;;;13.70;99.90;;;;;;4941863;28;20413;-85
2022/05/10 04:38:58;;;;;;;;;;;13.70;99.90;;;;;;4942540;28;19941;-83
2022/05/10 04:41:25;;;;;;;;;;;13.70;99.90;;;;;;4949067;28;20097;-84
2022/05/10 04:43:52;;;;;;;;;;;13.70;99.90;;;;;;4942150;28;19922;-82
2022/05/10 04:46:18;;;;;;;;;;;13.70;99.90;;;;;;4928682;28;20389;-83
2022/05/10 04:48:47;;;;;;;;;;;13.60;99.90;;;;;;4947170;28;19946;-84
2022/05/10 04:51:14;;;;;;;;;;;13.60;99.90;;;;;;4943783;28;19930;-82
2022/05/10 04:53:41;;;;;;;;;;;13.60;99.90;;;;;;4941115;28;19934;-81
2022/05/10 04:56:08;;;;;;;;;;;13.60;99.90;;;;;;4939416;28;19930;-82
2022/05/10 04:58:35;;;;;;;;;;;13.60;99.90;;;;;;4944484;28;19934;-82
2022/05/10 05:01:04;;;;;;;;;;;13.50;99.90;;;;;;4938510;28;19937;-82
2022/05/10 05:03:31;;;;;;;;;;;13.50;99.90;;;;;;4939614;28;20012;-81
2022/05/10 05:06:00;;;;;;;;;;;13.60;99.90;;;;;;4938249;28;20104;-82
2022/05/10 05:08:26;;;;;;;;;;;13.60;99.90;;;;;;4939529;28;19938;-85
2022/05/10 05:10:54;;;;;;;;;;;13.60;99.90;;;;;;4936222;28;20301;-81
2022/05/10 05:13:21;;;;;;;;;;;13.50;99.90;;;;;;4934071;28;20767;-81
2022/05/10 05:15:48;;;;;;;;;;;13.50;99.90;;;;;;4938458;28;20404;-81
2022/05/10 05:18:15;;;;;;;;;;;13.50;99.90;;;;;;4949713;28;19926;-80
2022/05/10 05:20:42;;;;;;;;;;;13.50;99.90;;;;;;4941100;28;20017;-80
2022/05/10 05:23:11;;;;;;;;;;;13.50;99.90;;;;;;4944596;28;19926;-81
2022/05/10 05:25:39;;;;;;;;;;;13.40;99.90;;;;;;4949572;28;19927;-80
2022/05/10 05:28:07;;;;;;;;;;;13.40;99.90;;;;;;4954395;28;20009;-80
2022/05/10 05:30:34;;;;;;;;;;;13.40;99.90;;;;;;4940036;28;19945;-80
2022/05/10 05:33:02;;;;;;;;;;;13.40;99.90;;;;;;4948399;28;19988;-80
2022/05/10 05:35:29;;;;;;;;;;;13.40;99.90;;;;;;4959979;28;19927;-81
2022/05/10 05:37:57;;;;;;;;;;;13.40;99.90;;;;;;4950539;28;19935;-80
2022/05/10 05:40:25;;;;;;;;;;;13.40;99.90;;;;;;4959196;28;20449;-79
2022/05/10 05:42:53;;;;;;;;;;;13.40;99.90;;;;;;4950347;28;19933;-81
2022/05/10 05:45:21;;;;;;;;;;;13.40;99.90;;;;;;4946480;28;20021;-81
2022/05/10 05:47:50;;;;;;;;;;;13.40;99.90;;;;;;4958462;28;19926;-81
2022/05/10 05:50:18;;;;;;;;;;;13.30;99.90;;;;;;4952750;28;19953;-80
2022/05/10 05:52:46;;;;;;;;;;;13.30;99.90;;;;;;4953618;28;19927;-80
2022/05/10 05:55:13;;;;;;;;;;;13.20;99.90;;;;;;4953652;28;20413;-80
2022/05/10 05:57:42;;;;;;;;;;;13.20;99.90;;;;;;4958309;28;20300;-81
2022/05/10 06:00:11;;;;;;;;;;;13.20;99.90;;;;;;4947959;28;19933;-80
2022/05/10 06:02:39;;;;;;;;;;;13.20;99.90;;;;;;4949764;28;20397;-81
2022/05/10 06:05:06;;;;;;;;;;;13.30;99.90;;;;;;4958788;28;19934;-80
2022/05/10 06:07:34;;;;;;;;;;;13.30;99.90;;;;;;4944206;28;19944;-81
2022/05/10 06:10:01;;;;;;;;;;;13.30;99.90;;;;;;4953735;28;19930;-80
2022/05/10 06:12:28;;;;;;;;;;;13.30;99.90;;;;;;4950304;28;20450;-81
2022/05/10 06:14:56;;;;;;;;;;;13.40;99.90;;;;;;4949499;28;20294;-81
2022/05/10 06:17:23;;;;;;;;;;;13.40;99.90;;;;;;4958358;28;19932;-80
2022/05/10 06:19:50;;;;;;;;;;;13.40;99.90;;;;;;4956879;28;19926;-80
2022/05/10 06:22:19;;;;;;;;;;;13.40;99.90;;;;;;4957090;28;20190;-81
2022/05/10 06:24:46;;;;;;;;;;;13.40;99.90;;;;;;4962891;28;20401;-81
2022/05/10 06:27:14;;;;;;;;;;;13.50;99.90;;;;;;4967989;28;19930;-80
2022/05/10 06:29:42;;;;;;;;;;;13.50;99.90;;;;;;4954693;28;19933;-81
2022/05/10 06:32:11;;;;;;;;;;;13.50;99.90;;;;;;4969364;28;19926;-80
2022/05/10 06:34:41;;;;;;;;;;;13.50;99.90;;;;;;4953260;28;20551;-81
2022/05/10 06:38:16;;;;;;;;;;;13.60;99.90;;;;;;4953686;28;19930;-80
2022/05/10 06:40:06;;;;;;;;;;;13.60;99.90;;;;;;4953359;28;19934;-81
2022/05/10 06:45:10;;;;;;;;;;;13.70;99.90;;;;;;4979295;28;19933;-77
2022/05/10 06:47:49;;;;;;;;;;;13.70;99.90;;;;;;4992664;28;19926;-78
2022/05/10 06:50:17;;;;;;;;;;;13.70;99.90;;;;;;4991703;28;20308;-76
2022/05/10 06:52:44;;;;;;;;;;;13.70;99.90;;;;;;4982311;28;20389;-79
2022/05/10 06:55:11;;;;;;;;;;;13.70;99.90;;;;;;4996959;28;19976;-77
2022/05/10 06:57:38;;;;;;;;;;;13.70;99.90;;;;;;4991348;28;19930;-79
2022/05/10 07:00:08;;;;;;;;;;;13.70;99.90;;;;;;4968920;28;19926;-77
2022/05/10 07:02:35;;;;;;;;;;;13.80;99.90;;;;;;4987997;28;19929;-78
2022/05/10 07:05:04;;;;;;;;;;;13.80;99.90;;;;;;4989551;28;19933;-79
2022/05/10 07:07:32;;;;;;;;;;;13.80;99.90;;;;;;5001580;28;19930;-77
2022/05/10 07:09:59;;;;;;;;;;;13.80;99.90;;;;;;4979753;28;19934;-76
2022/05/10 07:12:26;;;;;;;;;;;13.80;99.90;;;;;;4979840;28;19933;-76
2022/05/10 07:14:53;;;;;;;;;;;13.80;99.90;;;;;;4976576;28;19930;-77
2022/05/10 07:17:20;;;;;;;;;;;13.90;99.90;;;;;;4983328;28;19969;-76
2022/05/10 07:19:47;;;;;;;;;;;13.90;99.90;;;;;;4985357;28;20301;-77
2022/05/10 07:22:16;;;;;;;;;;;13.90;99.90;;;;;;4979881;28;19925;-77
2022/05/10 07:24:43;;;;;;;;;;;13.90;99.90;;;;;;4976485;28;19941;-77
2022/05/10 07:27:10;;;;;;;;;;;13.90;99.90;;;;;;4982552;28;19982;-76
2022/05/10 07:29:37;;;;;;;;;;;13.90;99.90;;;;;;4976691;28;19933;-80
2022/05/10 07:32:04;;;;;;;;;;;14.00;99.90;;;;;;4989685;28;19957;-77
2022/05/10 07:34:31;;;;;;;;;;;14.00;99.90;;;;;;4992627;28;19932;-77
2022/05/10 07:36:59;;;;;;;;;;;14.00;99.90;;;;;;4977001;28;19933;-76
2022/05/10 07:39:27;;;;;;;;;;;14.00;99.90;;;;;;4961297;28;19934;-77
2022/05/10 07:41:54;;;;;;;;;;;14.10;99.90;;;;;;4984943;28;19932;-78
2022/05/10 07:44:22;;;;;;;;;;;14.10;99.90;;;;;;4985660;28;19930;-76
2022/05/10 07:46:49;;;;;;;;;;;14.10;99.90;;;;;;4989637;28;20024;-78
2022/05/10 07:49:16;;;;;;;;;;;14.10;99.90;;;;;;4982124;28;20051;-77
2022/05/10 07:51:43;;;;;;;;;;;14.10;99.90;;;;;;4992148;28;20000;-78
2022/05/10 07:54:10;;;;;;;;;;;14.20;99.90;;;;;;4988526;28;19926;-77
2022/05/10 07:56:40;;;;;;;;;;;14.20;99.90;;;;;;4981540;28;19926;-76
2022/05/10 07:59:10;;;;;;;;;;;14.20;99.90;;;;;;4989977;28;19932;-76
2022/05/10 08:01:37;;;;;;;;;;;14.20;99.90;;;;;;4971510;28;19932;-78
2022/05/10 08:04:04;;;;;;;;;;;14.20;99.90;;;;;;4995091;28;20004;-79
2022/05/10 08:06:31;;;;;;;;;;;14.20;99.90;;;;;;4970165;28;19926;-79
2022/05/10 08:08:58;;;;;;;;;;;14.30;99.90;;;;;;4985743;28;19933;-78
2022/05/10 08:11:25;;;;;;;;;;;14.30;99.90;;;;;;4974552;28;19933;-77
2022/05/10 08:13:54;;;;;;;;;;;14.30;99.90;;;;;;4990183;28;20443;-77
2022/05/10 08:16:21;;;;;;;;;;;14.40;99.90;;;;;;4983471;28;19962;-78
2022/05/10 08:18:49;;;;;;;;;;;14.40;99.90;;;;;;4987531;28;19949;-78
2022/05/10 08:21:16;;;;;;;;;;;14.40;99.90;;;;;;4972397;28;19932;-80
2022/05/10 08:23:43;;;;;;;;;;;14.40;99.90;;;;;;4973703;28;19930;-80
2022/05/10 08:26:10;;;;;;;;;;;14.40;99.90;;;;;;4996361;28;19932;-77
2022/05/10 08:28:37;;;;;;;;;;;14.50;99.90;;;;;;4967193;28;19965;-76
2022/05/10 08:31:07;;;;;;;;;;;14.50;99.90;;;;;;4981635;28;19930;-78
2022/05/10 08:33:36;;;;;;;;;;;14.50;99.90;;;;;;4967591;28;19930;-77
2022/05/10 08:36:04;;;;;;;;;;;14.50;99.90;;;;;;4989633;28;19929;-77
2022/05/10 08:38:32;;;;;;;;;;;14.60;99.90;;;;;;4980036;28;19941;-77
2022/05/10 08:41:01;;;;;;;;;;;14.60;99.90;;;;;;4988720;28;19950;-77
2022/05/10 08:43:31;;;;;;;;;;;14.70;99.90;;;;;;4983142;28;19925;-77
2022/05/10 08:45:58;;;;;;;;;;;14.70;99.90;;;;;;4964701;28;20374;-76
2022/05/10 08:48:28;;;;;;;;;;;14.70;99.90;;;;;;4987684;28;19925;-77
2022/05/10 08:50:57;;;;;;;;;;;14.70;99.90;;;;;;4977179;28;19933;-78
2022/05/10 08:53:24;;;;;;;;;;;14.70;99.90;;;;;;4977197;28;20315;-77
2022/05/10 08:55:53;;;;;;;;;;;14.80;99.90;;;;;;4987866;28;19934;-77
2022/05/10 08:58:29;;;;;;;;;;;14.80;99.90;;;;;;4981074;28;19965;-78
2022/05/10 09:01:00;;;;;;;;;;;14.80;99.90;;;;;;4980513;28;20021;-79
2022/05/10 09:03:31;;;;;;;;;;;14.80;99.90;;;;;;4984774;28;19968;-76
2022/05/10 09:06:00;;;;;;;;;;;14.80;99.90;;;;;;4974204;28;19957;-78
2022/05/10 09:08:32;;;;;;;;;;;14.90;99.90;;;;;;4981557;28;19925;-78
2022/05/10 09:11:00;;;;;;;;;;;14.90;99.90;;;;;;4993080;28;19925;-76
2022/05/10 09:13:27;;;;;;;;;;;14.90;99.90;;;;;;4966887;28;19941;-78
2022/05/10 09:15:56;;;;;;;;;;;15.00;99.90;;;;;;4989012;28;19926;-77
2022/05/10 09:18:27;;;;;;;;;;;15.00;99.90;;;;;;4985231;28;19930;-77
2022/05/10 09:21:01;;;;;;;;;;;15.00;99.90;;;;;;4990812;28;19984;-79
2022/05/10 09:23:33;;;;;;;;;;;15.10;99.90;;;;;;4991454;28;19933;-80
2022/05/10 09:26:00;;;;;;;;;;;15.10;99.90;;;;;;4988966;28;20389;-77
2022/05/10 09:28:29;;;;;;;;;;;15.10;99.90;;;;;;4981563;28;19975;-77
2022/05/10 09:36:28;;;;;;;;;;;15.20;99.90;;;;;;4986093;28;20060;-77
2022/05/10 09:39:01;;;;;;;;;;;15.20;99.90;;;;;;4986475;28;20278;-79
2022/05/10 09:41:36;;;;;;;;;;;15.20;99.90;;;;;;4982845;28;19926;-77
2022/05/10 09:44:17;;;;;;;;;;;15.20;99.90;;;;;;4967866;28;19926;-78
2022/05/10 09:46:44;;;;;;;;;;;15.30;99.90;;;;;;4982826;28;19930;-77
2022/05/10 09:49:29;;;;;;;;;;;15.30;99.90;;;;;;4972396;28;19931;-80
2022/05/10 09:51:59;;;;;;;;;;;15.30;99.90;;;;;;4988254;28;19926;-77
2022/05/10 09:54:31;;;;;;;;;;;15.30;99.90;;;;;;4975778;28;20308;-77
2022/05/10 09:56:59;;;;;;;;;;;15.30;99.90;;;;;;4993788;28;20008;-80
2022/05/10 09:59:32;;;;;;;;;;;15.40;99.90;;;;;;4979213;28;19926;-77
2022/05/10 10:01:59;;;;;;;;;;;15.40;99.90;;;;;;4990022;28;20456;-77
2022/05/10 10:04:34;;;;;;;;;;;15.40;99.90;;;;;;4995442;28;20013;-77
2022/05/10 10:07:07;;;;;;;;;;;15.40;99.90;;;;;;4986194;28;19964;-77
2022/05/10 10:09:36;;;;;;;;;;;15.50;99.90;;;;;;4984749;28;19930;-77
2022/05/10 10:12:03;;;;;;;;;;;15.50;99.90;;;;;;4974430;28;20393;-77
2022/05/10 10:14:38;;;;;;;;;;;15.50;99.90;;;;;;4967394;28;19926;-79
2022/05/10 10:17:05;;;;;;;;;;;15.50;99.90;;;;;;4994306;28;20049;-77
2022/05/10 10:19:35;;;;;;;;;;;15.50;99.90;;;;;;4991389;28;19946;-77
2022/05/10 10:22:04;;;;;;;;;;;15.60;99.90;;;;;;4992085;28;19965;-77
2022/05/10 10:24:35;;;;;;;;;;;15.60;99.90;;;;;;4968435;28;19934;-77
2022/05/10 10:27:06;;;;;;;;;;;15.60;99.90;;;;;;4977635;28;19933;-79
2022/05/10 10:29:36;;;;;;;;;;;15.60;99.90;;;;;;4967080;28;19971;-77
2022/05/10 10:32:07;;;;;;;;;;;15.70;99.90;;;;;;4988440;28;19929;-77
2022/05/10 10:34:37;;;;;;;;;;;15.70;99.90;;;;;;4976731;28;19965;-78
2022/05/10 10:37:06;;;;;;;;;;;15.70;99.90;;;;;;4973566;28;20058;-78
2022/05/10 10:39:37;;;;;;;;;;;15.80;99.90;;;;;;4988980;28;19938;-77
2022/05/10 10:42:12;;;;;;;;;;;15.80;99.90;;;;;;4970858;28;19941;-79
2022/05/10 10:44:42;;;;;;;;;;;15.80;99.90;;;;;;4990220;28;19930;-77
2022/05/10 10:47:17;;;;;;;;;;;15.80;99.90;;;;;;4979793;28;19969;-79
2022/05/10 10:49:48;;;;;;;;;;;15.80;99.90;;;;;;4981158;28;20033;-81
2022/05/10 10:52:17;;;;;;;;;;;15.90;99.90;;;;;;4996373;28;19925;-77
2022/05/10 10:54:46;;;;;;;;;;;15.90;99.90;;;;;;4981600;28;19926;-80
2022/05/10 10:57:29;;;;;;;;;;;15.90;99.90;;;;;;4991534;28;19938;-78
2022/05/10 11:00:03;;;;;;;;;;;16.00;99.90;;;;;;4984946;28;19934;-80
2022/05/10 11:02:54;;;;;;;;;;;16.00;99.90;;;;;;4989830;28;19925;-77
2022/05/10 11:05:29;;;;;;;;;;;16.00;99.90;;;;;;4919533;28;20397;-77
2022/05/10 11:08:02;;;;;;;;;;;16.00;99.90;;;;;;4997639;28;20306;-77
2022/05/10 11:10:39;;;;;;;;;;;16.00;99.90;;;;;;4980223;28;19973;-78
2022/05/10 11:13:09;;;;;;;;;;;16.10;99.90;;;;;;4981811;28;19977;-77
2022/05/10 11:15:42;;;;;;;;;;;16.10;99.90;;;;;;4983608;28;20021;-77
2022/05/10 11:18:28;;;;;;;;;;;16.10;99.90;;;;;;4971495;28;19926;-78
2022/05/10 11:21:01;;;;;;;;;;;16.20;99.90;;;;;;4985850;28;19933;-79
2022/05/10 11:23:32;;;;;;;;;;;16.20;99.90;;;;;;4969454;28;19972;-77
2022/05/10 11:26:10;;;;;;;;;;;16.20;99.90;;;;;;4971367;28;20425;-77
2022/05/10 11:28:54;;;;;;;;;;;16.20;99.90;;;;;;4980800;28;20444;-77
2022/05/10 11:31:26;;;;;;;;;;;16.30;99.90;;;;;;4984492;28;19933;-78
2022/05/10 11:33:57;;;;;;;;;;;16.30;99.90;;;;;;4975456;28;20475;-77
2022/05/10 11:36:28;;;;;;;;;;;16.30;99.90;;;;;;4985266;28;20025;-77
2022/05/10 11:39:10;;;;;;;;;;;16.30;99.90;;;;;;4979859;28;19927;-77
2022/05/10 11:41:42;;;;;;;;;;;16.30;99.90;;;;;;4982668;28;19926;-77
2022/05/10 11:44:19;;;;;;;;;;;16.40;99.90;;;;;;4985685;28;20435;-77
2022/05/10 11:47:01;;;;;;;;;;;16.40;99.90;;;;;;4983187;28;19981;-78
2022/05/10 11:49:49;;;;;;;;;;;16.50;99.90;;;;;;4989391;28;19926;-77
2022/05/10 11:52:24;;;;;;;;;;;16.50;99.90;;;;;;4986469;28;19934;-78
2022/05/10 11:54:56;;;;;;;;;;;16.50;99.90;;;;;;4985756;28;19926;-77
2022/05/10 11:57:25;;;;;;;;;;;16.50;99.90;;;;;;4980362;28;20013;-77
2022/05/10 11:59:52;;;;;;;;;;;16.50;99.90;;;;;;4986405;28;19980;-80
2022/05/10 12:02:34;;;;;;;;;;;16.60;99.90;;;;;;4990667;28;19933;-77
2022/05/10 12:05:15;;;;;;;;;;;16.60;99.90;;;;;;4971824;28;19937;-77
2022/05/10 12:07:44;;;;;;;;;;;16.60;99.90;;;;;;4981265;28;19926;-80
2022/05/10 12:10:25;;;;;;;;;;;16.70;99.90;;;;;;4967736;28;20013;-80
2022/05/10 12:13:01;;;;;;;;;;;16.70;99.90;;;;;;4984558;28;20369;-79
2022/05/10 12:21:23;;;;;;;;;;;16.80;99.90;;;;;;4982978;28;19921;-78
2022/05/10 12:24:04;;;;;;;;;;;16.80;99.90;;;;;;4961727;28;19933;-77
2022/05/10 12:26:40;;;;;;;;;;;16.90;99.90;;;;;;4976978;28;19981;-77
2022/05/10 12:29:24;;;;;;;;;;;17.00;99.90;;;;;;4985423;28;19988;-79
2022/05/10 12:31:58;;;;;;;;;;;17.00;99.90;;;;;;4985891;28;20016;-78
2022/05/10 12:34:43;;;;;;;;;;;17.10;99.90;;;;;;4970672;28;20346;-78
2022/05/10 12:37:29;;;;;;;;;;;17.10;99.90;;;;;;4998227;23;19926;-77
2022/05/10 12:42:27;;;;;;;;;;;17.20;99.90;;;;;;5014214;23;19934;-76
2022/05/10 12:45:01;;;;;;;;;;;17.30;99.90;;;;;;5025535;22;20353;-77
2022/05/10 12:47:43;;;;;;;;;;;17.40;99.90;;;;;;4990220;28;19957;-78
2022/05/10 12:50:20;;;;;;;;;;;17.40;99.90;;;;;;4980372;28;19930;-77
2022/05/10 12:52:48;;;;;;;;;;;17.40;99.90;;;;;;4987623;28;20388;-77
2022/05/10 12:55:18;;;;;;;;;;;17.50;99.90;;;;;;4969506;28;19930;-77
2022/05/10 12:57:48;;;;;;;;;;;17.60;99.90;;;;;;4989840;28;19976;-77
2022/05/10 13:00:20;;;;;;;;;;;17.70;99.90;;;;;;4989340;28;19932;-77
2022/05/10 13:02:51;;;;;;;;;;;17.80;99.90;;;;;;4988244;28;21543;-77
2022/05/10 13:05:22;;;;;;;;;;;17.80;99.90;;;;;;4987411;28;20406;-77
2022/05/10 13:08:01;;;;;;;;;;;17.90;99.90;;;;;;4971285;28;19940;-77
2022/05/10 13:10:29;;;;;;;;;;;18.00;99.90;;;;;;4977617;28;20407;-77
2022/05/10 13:13:01;;;;;;;;;;;18.00;99.90;;;;;;4988850;28;20459;-77
2022/05/10 13:15:30;;;;;;;;;;;18.10;99.90;;;;;;4981404;28;20019;-77
2022/05/10 13:17:58;;;;;;;;;;;18.10;99.90;;;;;;4991428;28;19965;-77
2022/05/10 13:20:29;;;;;;;;;;;18.20;99.90;;;;;;4976651;28;20396;-77
2022/05/10 13:22:59;;;;;;;;;;;18.30;99.90;;;;;;4988037;28;19984;-77
2022/05/10 13:25:27;;;;;;;;;;;18.40;99.90;;;;;;4987324;28;19926;-77
2022/05/10 13:28:05;;;;;;;;;;;18.40;99.90;;;;;;4990709;28;19925;-77
2022/05/10 13:30:33;;;;;;;;;;;18.40;99.90;;;;;;4965151;28;20368;-77
2022/05/10 13:33:00;;;;;;;;;;;18.50;99.90;;;;;;4984826;28;19937;-77
2022/05/10 13:35:31;;;;;;;;;;;18.50;99.90;;;;;;4984174;28;20024;-77
2022/05/10 13:37:59;;;;;;;;;;;18.60;99.90;;;;;;4989878;28;20619;-77
2022/05/10 13:40:28;;;;;;;;;;;18.70;99.90;;;;;;4985591;28;19944;-77
2022/05/10 13:42:56;;;;;;;;;;;18.70;99.90;;;;;;4986424;28;20281;-77
2022/05/10 13:45:24;;;;;;;;;;;18.80;99.90;;;;;;4988534;28;19937;-77
2022/05/10 13:47:55;;;;;;;;;;;18.80;99.90;;;;;;4984186;28;19926;-77
2022/05/10 13:50:23;;;;;;;;;;;18.90;99.90;;;;;;4991014;28;19933;-78
2022/05/10 13:52:56;;;;;;;;;;;18.90;99.90;;;;;;4986974;28;20304;-77
2022/05/10 13:55:28;;;;;;;;;;;19.00;99.90;;;;;;4991488;28;20404;-77
2022/05/10 13:57:59;;;;;;;;;;;19.00;99.90;;;;;;4987654;28;19925;-78
2022/05/10 14:00:30;;;;;;;;;;;19.00;99.90;;;;;;4987278;28;19926;-78
2022/05/10 14:02:58;;;;;;;;;;;19.10;99.90;;;;;;4985598;28;20391;-77
2022/05/10 14:05:29;;;;;;;;;;;19.10;99.90;;;;;;4986588;28;20304;-77
2022/05/10 14:07:59;;;;;;;;;;;19.20;99.90;;;;;;4972482;28;19945;-77
2022/05/10 14:10:28;;;;;;;;;;;19.20;99.90;;;;;;4985679;28;19926;-77
2022/05/10 14:12:58;;;;;;;;;;;19.30;99.90;;;;;;4985270;28;19930;-77
2022/05/10 14:15:27;;;;;;;;;;;19.30;99.90;;;;;;4969388;28;19930;-77
2022/05/10 14:17:56;;;;;;;;;;;19.30;99.90;;;;;;4970425;28;19926;-77
2022/05/10 14:20:24;;;;;;;;;;;19.40;99.90;;;;;;4989427;28;19930;-77
2022/05/10 14:22:54;;;;;;;;;;;19.40;99.90;;;;;;4970568;28;20012;-77
2022/05/10 14:25:23;;;;;;;;;;;19.40;99.90;;;;;;4970231;28;19933;-77
2022/05/10 14:27:57;;;;;;;;;;;19.50;99.90;;;;;;4989343;28;19930;-77
2022/05/10 14:30:26;;;;;;;;;;;19.50;99.90;;;;;;4987899;28;20401;-77
2022/05/10 14:32:54;;;;;;;;;;;19.60;99.90;;;;;;4981877;28;19926;-77
2022/05/10 14:35:26;;;;;;;;;;;19.60;99.90;;;;;;4967839;28;19941;-77
2022/05/10 14:37:54;;;;;;;;;;;19.70;99.90;;;;;;4990122;28;19930;-79
2022/05/10 14:40:30;;;;;;;;;;;19.70;99.90;;;;;;4989192;28;20347;-77
2022/05/10 14:42:58;;;;;;;;;;;19.70;99.90;;;;;;4974533;28;19926;-78
2022/05/10 14:45:34;;;;;;;;;;;19.80;99.90;;;;;;4971439;28;19930;-77
2022/05/10 14:48:01;;;;;;;;;;;19.80;99.90;;;;;;4986574;28;19954;-77
2022/05/10 14:50:30;;;;;;;;;;;19.80;99.90;;;;;;4987586;28;19940;-77
2022/05/10 14:53:11;;;;;;;;;;;19.80;99.90;;;;;;4995841;28;21204;-78
2022/05/10 14:55:40;;;;;;;;;;;19.80;99.90;;;;;;4991279;28;20337;-78
2022/05/10 14:58:08;;;;;;;;;;;19.90;99.90;;;;;;4973400;28;20023;-77